Time;durP1;ratioP1;P1;durP2;ratioP2;P2;SDS_P1;SDS_P2;PMS_P1;PMS_P2;Temp;Humidity;BMP_temperature;BMP_pressure;BME280_temperature;BME280_humidity;BME280_pressure;Samples;Min_cycle;Max_cycle;Signal;HPM_P1;HPM_P2
2022/01/01 00:00:28;;;;;;;39.03;26.83;;;11.20;99.90;;;;;;6254726;22;20065;-72
2022/01/01 00:02:55;;;;;;;36.50;26.63;;;11.20;99.90;;;;;;6244347;22;20024;-73
2022/01/01 00:05:22;;;;;;;37.45;27.10;;;11.10;99.90;;;;;;6236808;22;20395;-73
2022/01/01 00:07:48;;;;;;;33.92;25.80;;;11.10;99.90;;;;;;6239900;22;20027;-73
2022/01/01 00:10:14;;;;;;;32.63;25.67;;;11.00;99.90;;;;;;6237273;22;20020;-72
2022/01/01 00:12:46;;;;;;;34.05;25.50;;;11.00;99.90;;;;;;6240410;22;20038;-72
2022/01/01 00:15:13;;;;;;;34.25;25.20;;;11.10;99.90;;;;;;6238914;22;20012;-73
2022/01/01 00:17:41;;;;;;;32.47;22.98;;;11.00;99.90;;;;;;6259041;22;20023;-72
2022/01/01 00:20:09;;;;;;;34.97;25.13;;;11.00;99.90;;;;;;6169964;22;20012;-72
2022/01/01 00:22:36;;;;;;;33.50;26.00;;;11.00;99.90;;;;;;6227672;22;20362;-72
2022/01/01 00:25:03;;;;;;;38.15;26.38;;;11.00;99.90;;;;;;6249043;22;20012;-73
2022/01/01 00:27:30;;;;;;;33.47;26.48;;;10.90;99.90;;;;;;6238746;22;20015;-72
2022/01/01 00:29:56;;;;;;;33.50;24.58;;;10.90;99.90;;;;;;6239580;22;20039;-73
2022/01/01 00:32:23;;;;;;;37.45;27.17;;;10.90;99.90;;;;;;6238799;22;21223;-73
2022/01/01 00:34:50;;;;;;;35.00;26.77;;;10.90;99.90;;;;;;6237530;22;20050;-72
2022/01/01 00:37:17;;;;;;;43.95;27.00;;;10.90;99.90;;;;;;6241097;22;20020;-73
2022/01/01 00:39:44;;;;;;;36.17;26.13;;;10.90;99.90;;;;;;6261941;22;20823;-73
2022/01/01 00:42:10;;;;;;;33.03;25.92;;;10.90;99.90;;;;;;6250910;22;20011;-73
2022/01/01 00:44:36;;;;;;;31.55;23.05;;;10.80;99.90;;;;;;6248775;22;20544;-73
2022/01/01 00:47:03;;;;;;;38.67;25.63;;;10.80;99.90;;;;;;6236898;22;20036;-72
2022/01/01 00:49:30;;;;;;;35.33;27.33;;;10.80;99.90;;;;;;6218268;22;20115;-72
2022/01/01 00:51:57;;;;;;;34.45;24.27;;;10.80;99.90;;;;;;6244276;22;20016;-72
2022/01/01 00:54:23;;;;;;;30.58;23.42;;;10.80;99.90;;;;;;6239208;22;20020;-73
2022/01/01 00:56:50;;;;;;;32.58;24.33;;;10.80;99.90;;;;;;6248133;22;20039;-74
2022/01/01 00:59:16;;;;;;;29.65;24.23;;;10.80;99.90;;;;;;6238235;22;20040;-72
2022/01/01 01:01:43;;;;;;;32.75;24.25;;;10.70;99.90;;;;;;6240143;22;20016;-74
2022/01/01 01:04:09;;;;;;;30.92;23.58;;;10.60;99.90;;;;;;6237301;22;20012;-72
2022/01/01 01:06:34;;;;;;;35.08;24.30;;;10.60;99.90;;;;;;6239630;22;20163;-71
2022/01/01 01:09:01;;;;;;;31.27;23.83;;;10.60;99.90;;;;;;6239601;22;20440;-72
2022/01/01 01:11:29;;;;;;;32.22;23.65;;;10.60;99.90;;;;;;6243182;22;20016;-72
2022/01/01 01:13:58;;;;;;;31.20;23.52;;;10.50;99.90;;;;;;6256127;22;20139;-72
2022/01/01 01:16:26;;;;;;;28.27;22.77;;;10.50;99.90;;;;;;6253937;22;20016;-73
2022/01/01 01:18:54;;;;;;;32.47;24.27;;;10.50;99.90;;;;;;6256959;22;20012;-72
2022/01/01 01:21:22;;;;;;;31.42;22.73;;;10.40;99.90;;;;;;6212176;22;20020;-72
2022/01/01 01:23:49;;;;;;;33.90;24.75;;;10.40;99.90;;;;;;6251192;22;20016;-74
2022/01/01 01:26:16;;;;;;;35.40;25.80;;;10.50;99.90;;;;;;6257212;22;20020;-72
2022/01/01 01:28:48;;;;;;;34.08;25.58;;;10.50;99.90;;;;;;6262458;22;20456;-73
2022/01/01 01:31:16;;;;;;;30.90;23.58;;;10.50;99.90;;;;;;6251241;22;20024;-72
2022/01/01 01:33:43;;;;;;;31.98;23.88;;;10.40;99.90;;;;;;6239817;22;20335;-72
2022/01/01 01:36:10;;;;;;;33.55;25.05;;;10.40;99.90;;;;;;6239626;22;20016;-73
2022/01/01 01:38:38;;;;;;;30.60;23.50;;;10.40;99.90;;;;;;6240586;22;20366;-71
2022/01/01 01:41:06;;;;;;;32.95;25.08;;;10.40;99.90;;;;;;6237425;22;20012;-73
2022/01/01 01:43:32;;;;;;;33.03;22.88;;;10.40;99.90;;;;;;6240317;22;20141;-74
2022/01/01 01:46:04;;;;;;;28.27;21.80;;;10.40;99.90;;;;;;6264901;22;20012;-73
2022/01/01 01:48:31;;;;;;;30.93;23.13;;;10.30;99.90;;;;;;6258566;22;20111;-72
2022/01/01 01:50:59;;;;;;;31.00;22.90;;;10.30;99.90;;;;;;6222331;22;20019;-71
2022/01/01 01:53:26;;;;;;;28.85;21.17;;;10.30;99.90;;;;;;6237734;22;20035;-72
2022/01/01 01:55:53;;;;;;;30.15;22.10;;;10.40;99.90;;;;;;6239388;22;20057;-75
2022/01/01 01:58:19;;;;;;;28.73;21.23;;;10.30;99.90;;;;;;6239126;22;20050;-73
2022/01/01 02:03:15;;;;;;;27.08;20.60;;;10.30;99.90;;;;;;6218034;22;20016;-72
2022/01/01 02:05:43;;;;;;;34.20;23.73;;;10.30;99.90;;;;;;6252216;22;20036;-73
2022/01/01 02:08:11;;;;;;;30.00;21.75;;;10.20;99.90;;;;;;6251828;22;20023;-72
2022/01/01 02:10:37;;;;;;;24.92;18.25;;;10.30;99.90;;;;;;6249099;22;20043;-75
2022/01/01 02:13:11;;;;;;;23.58;18.77;;;10.30;99.90;;;;;;6237318;22;20012;-72
2022/01/01 02:16:00;;;;;;;26.75;19.85;;;10.30;99.90;;;;;;6238136;22;20023;-72
2022/01/01 02:18:27;;;;;;;27.80;21.05;;;10.30;99.90;;;;;;6239506;22;20047;-72
2022/01/01 02:20:56;;;;;;;33.47;22.73;;;10.30;99.90;;;;;;6236937;22;20016;-72
2022/01/01 02:23:25;;;;;;;28.20;19.85;;;10.20;99.90;;;;;;6239548;22;20024;-72
2022/01/01 02:25:56;;;;;;;28.17;20.65;;;10.10;99.90;;;;;;6251849;22;20022;-73
2022/01/01 02:28:23;;;;;;;25.10;19.08;;;10.10;99.90;;;;;;6268029;22;20126;-72
2022/01/01 02:30:50;;;;;;;30.33;22.85;;;10.10;99.90;;;;;;6257986;22;20047;-74
2022/01/01 02:33:17;;;;;;;37.90;19.92;;;10.00;99.90;;;;;;6254979;22;20031;-73
2022/01/01 02:35:43;;;;;;;28.05;20.10;;;10.00;99.90;;;;;;6247327;22;20012;-73
2022/01/01 02:38:09;;;;;;;27.42;21.17;;;10.00;99.90;;;;;;6239291;22;20019;-76
2022/01/01 02:40:36;;;;;;;25.60;19.92;;;10.00;99.90;;;;;;6241026;22;20068;-73
2022/01/01 02:43:02;;;;;;;29.40;22.33;;;10.00;99.90;;;;;;6251273;22;20012;-73
2022/01/01 02:45:30;;;;;;;30.85;21.95;;;10.00;99.90;;;;;;6240532;22;20099;-72
2022/01/01 02:47:56;;;;;;;33.17;24.27;;;9.90;99.90;;;;;;6239566;22;20016;-75
2022/01/01 02:50:23;;;;;;;32.90;25.20;;;9.90;99.90;;;;;;6236585;22;20181;-72
2022/01/01 02:52:50;;;;;;;31.42;22.38;;;9.90;99.90;;;;;;6237503;22;20066;-72
2022/01/01 02:55:16;;;;;;;32.95;23.10;;;9.90;99.90;;;;;;6241973;22;20023;-73
2022/01/01 02:57:42;;;;;;;31.75;23.95;;;9.90;99.90;;;;;;6255744;22;20331;-72
2022/01/01 03:00:08;;;;;;;30.17;22.17;;;9.90;99.90;;;;;;6253339;22;20016;-72
2022/01/01 03:02:35;;;;;;;30.63;21.35;;;10.00;99.90;;;;;;6249520;22;20016;-73
2022/01/01 03:05:01;;;;;;;27.73;20.33;;;9.90;99.90;;;;;;6236846;22;20104;-73
2022/01/01 03:07:28;;;;;;;26.95;20.92;;;10.00;99.90;;;;;;6237055;22;20032;-73
2022/01/01 03:09:54;;;;;;;27.02;20.25;;;10.00;99.90;;;;;;6239035;22;20028;-72
2022/01/01 03:12:20;;;;;;;25.65;19.38;;;10.10;99.90;;;;;;6236294;22;20124;-74
2022/01/01 03:14:46;;;;;;;26.27;20.40;;;10.20;99.90;;;;;;6238716;22;20035;-73
2022/01/01 03:17:12;;;;;;;22.60;17.65;;;10.10;99.90;;;;;;6238315;22;20016;-72
2022/01/01 03:19:38;;;;;;;23.08;17.90;;;10.00;99.90;;;;;;6239474;22;20020;-72
2022/01/01 03:22:05;;;;;;;22.77;18.75;;;9.90;99.90;;;;;;6247952;22;20388;-71
2022/01/01 03:24:32;;;;;;;22.40;16.40;;;9.90;99.90;;;;;;6249539;22;20020;-71
2022/01/01 03:27:01;;;;;;;22.70;16.30;;;9.90;99.90;;;;;;6239880;22;20062;-72
2022/01/01 03:29:30;;;;;;;20.80;15.48;;;9.80;99.90;;;;;;6255250;22;20015;-72
2022/01/01 03:31:58;;;;;;;21.77;16.00;;;9.90;99.90;;;;;;6258124;22;20016;-73
2022/01/01 03:34:24;;;;;;;24.15;17.85;;;9.90;99.90;;;;;;6267802;22;20443;-72
2022/01/01 03:36:52;;;;;;;22.23;15.70;;;9.90;99.90;;;;;;6245262;22;20050;-71
2022/01/01 03:39:18;;;;;;;20.00;14.55;;;10.00;99.90;;;;;;6249535;22;20069;-72
2022/01/01 03:41:44;;;;;;;26.02;17.58;;;9.90;99.90;;;;;;6239906;22;20099;-72
2022/01/01 03:44:10;;;;;;;17.73;13.48;;;9.80;99.90;;;;;;6235822;22;20803;-73
2022/01/01 03:46:36;;;;;;;19.02;14.48;;;9.80;99.90;;;;;;6239910;22;20012;-72
2022/01/01 03:49:01;;;;;;;25.75;17.55;;;9.80;99.90;;;;;;6251578;22;20016;-73
2022/01/01 03:51:28;;;;;;;19.80;12.93;;;9.70;99.90;;;;;;6249674;22;20470;-72
2022/01/01 03:53:54;;;;;;;22.00;16.75;;;9.70;99.90;;;;;;6239429;22;20008;-72
2022/01/01 03:56:19;;;;;;;21.70;15.65;;;9.70;99.90;;;;;;6236669;22;20023;-73
2022/01/01 03:58:45;;;;;;;25.95;17.30;;;9.70;99.90;;;;;;6239108;22;20031;-73
2022/01/01 04:01:12;;;;;;;26.48;18.65;;;9.70;99.90;;;;;;6248564;22;20035;-72
2022/01/01 04:03:38;;;;;;;25.35;19.05;;;9.70;99.90;;;;;;6239821;22;20038;-72
2022/01/01 04:06:04;;;;;;;25.25;18.85;;;9.70;99.90;;;;;;6237311;22;20020;-71
2022/01/01 04:08:31;;;;;;;27.23;19.50;;;9.60;99.90;;;;;;6243240;22;20089;-72
2022/01/01 04:10:57;;;;;;;25.05;18.40;;;9.60;99.90;;;;;;6268691;22;20066;-72
2022/01/01 04:13:24;;;;;;;26.25;18.85;;;9.70;99.90;;;;;;6214597;22;20017;-71
2022/01/01 04:15:50;;;;;;;23.50;16.75;;;9.70;99.90;;;;;;6238815;22;20483;-72
2022/01/01 04:18:26;;;;;;;22.05;17.25;;;9.90;99.90;;;;;;6237790;22;20012;-71
2022/01/01 04:20:52;;;;;;;21.23;15.68;;;9.80;99.90;;;;;;6237522;22;20023;-72
2022/01/01 04:23:18;;;;;;;22.27;16.10;;;9.80;99.90;;;;;;6235543;22;20020;-71
2022/01/01 04:25:47;;;;;;;17.90;14.18;;;9.80;99.90;;;;;;6239196;22;20016;-72
2022/01/01 04:28:13;;;;;;;22.10;15.95;;;9.90;99.90;;;;;;6252996;22;20046;-72
2022/01/01 04:30:40;;;;;;;20.40;14.63;;;9.80;99.90;;;;;;6256751;22;20505;-72
2022/01/01 04:33:06;;;;;;;20.52;14.52;;;9.90;99.90;;;;;;6255769;22;20092;-72
2022/01/01 04:35:31;;;;;;;23.95;14.70;;;10.00;99.90;;;;;;6269719;22;20392;-71
2022/01/01 04:37:59;;;;;;;21.35;14.93;;;9.90;99.90;;;;;;6256302;22;20035;-72
2022/01/01 04:40:25;;;;;;;18.13;13.18;;;9.90;99.90;;;;;;6268266;22;20495;-72
2022/01/01 04:42:51;;;;;;;18.88;12.80;;;9.90;99.90;;;;;;6256335;22;20023;-72
2022/01/01 04:45:17;;;;;;;18.45;12.80;;;9.90;99.90;;;;;;6264396;22;20041;-72
2022/01/01 04:47:43;;;;;;;16.42;11.93;;;9.90;99.90;;;;;;6259961;22;20095;-72
2022/01/01 04:50:10;;;;;;;18.15;12.43;;;9.80;99.90;;;;;;6267790;22;20015;-71
2022/01/01 04:52:36;;;;;;;17.52;12.00;;;9.80;99.90;;;;;;6247832;22;20012;-72
2022/01/01 04:55:02;;;;;;;17.02;12.43;;;9.70;99.90;;;;;;6237911;22;20062;-72
2022/01/01 04:57:30;;;;;;;17.05;12.57;;;9.70;99.90;;;;;;6250555;22;20020;-72
2022/01/01 04:59:57;;;;;;;16.27;12.55;;;9.70;99.90;;;;;;6247201;22;20020;-72
2022/01/01 05:02:27;;;;;;;17.58;12.55;;;9.70;99.90;;;;;;6236540;22;20024;-72
2022/01/01 05:04:55;;;;;;;18.90;13.55;;;9.70;99.90;;;;;;6238532;22;20016;-72
2022/01/01 05:07:21;;;;;;;17.08;12.52;;;9.60;99.90;;;;;;6238107;22;20428;-72
2022/01/01 05:09:49;;;;;;;18.63;12.32;;;9.50;99.90;;;;;;6238518;22;20016;-73
2022/01/01 05:12:15;;;;;;;19.65;12.90;;;9.40;99.90;;;;;;6237852;22;20074;-72
2022/01/01 05:14:41;;;;;;;17.08;13.43;;;9.40;99.90;;;;;;6237645;22;20016;-71
2022/01/01 05:17:07;;;;;;;18.88;13.13;;;9.40;99.90;;;;;;6235006;22;20016;-71
2022/01/01 05:19:33;;;;;;;18.08;13.07;;;9.40;99.90;;;;;;6239574;22;20012;-72
2022/01/01 05:22:00;;;;;;;20.30;13.60;;;9.40;99.90;;;;;;6239613;22;20016;-72
2022/01/01 05:24:26;;;;;;;19.63;13.27;;;9.40;99.90;;;;;;6238588;22;20555;-72
2022/01/01 05:26:52;;;;;;;19.38;13.60;;;9.40;99.90;;;;;;6238928;22;20016;-72
2022/01/01 05:29:18;;;;;;;21.67;14.60;;;9.40;99.90;;;;;;6236244;22;20126;-72
2022/01/01 05:31:43;;;;;;;17.25;12.77;;;9.30;99.90;;;;;;6249060;22;20031;-72
2022/01/01 05:34:09;;;;;;;21.13;13.48;;;9.30;99.90;;;;;;6246803;22;20023;-72
2022/01/01 05:36:35;;;;;;;19.65;13.77;;;9.20;99.90;;;;;;6243660;22;20447;-72
2022/01/01 05:39:02;;;;;;;17.35;13.05;;;9.20;99.90;;;;;;6230395;22;20057;-71
2022/01/01 05:41:31;;;;;;;18.95;14.43;;;9.20;99.90;;;;;;6247834;22;20062;-73
2022/01/01 05:43:57;;;;;;;19.00;13.50;;;9.10;99.90;;;;;;6249292;22;20008;-72
2022/01/01 05:46:25;;;;;;;18.15;13.50;;;9.10;99.90;;;;;;6247838;22;20024;-71
2022/01/01 05:48:51;;;;;;;19.10;13.52;;;9.20;99.90;;;;;;6233971;22;20076;-73
2022/01/01 05:51:18;;;;;;;20.30;14.70;;;9.20;99.90;;;;;;6236309;22;20017;-73
2022/01/01 05:53:44;;;;;;;19.60;13.32;;;9.20;99.90;;;;;;6249491;22;20018;-72
2022/01/01 05:56:09;;;;;;;21.10;14.35;;;9.30;99.90;;;;;;6236818;22;20012;-71
2022/01/01 05:58:36;;;;;;;20.45;14.05;;;9.20;99.90;;;;;;6237722;22;20008;-72
2022/01/01 06:01:02;;;;;;;17.75;13.43;;;9.20;99.90;;;;;;6237693;22;20012;-72
2022/01/01 06:03:28;;;;;;;19.73;13.65;;;9.30;99.90;;;;;;6247927;22;20016;-72
2022/01/01 06:05:55;;;;;;;17.58;13.35;;;9.20;99.90;;;;;;6238304;22;20095;-71
2022/01/01 06:08:21;;;;;;;18.30;12.57;;;9.30;99.90;;;;;;6237804;22;20397;-71
2022/01/01 06:10:48;;;;;;;18.45;13.30;;;9.30;99.90;;;;;;6240402;22;20020;-72
2022/01/01 06:13:14;;;;;;;19.70;12.85;;;9.20;99.90;;;;;;6249687;22;20023;-72
2022/01/01 06:15:42;;;;;;;18.52;12.90;;;9.20;99.90;;;;;;6240411;22;20151;-73
2022/01/01 06:18:08;;;;;;;19.65;12.52;;;9.20;99.90;;;;;;6238423;22;20012;-73
2022/01/01 06:20:35;;;;;;;18.67;12.90;;;9.20;99.90;;;;;;6246344;22;20042;-72
2022/01/01 06:23:02;;;;;;;17.20;12.88;;;9.20;99.90;;;;;;6256161;22;20015;-72
2022/01/01 06:25:29;;;;;;;18.35;12.18;;;9.30;99.90;;;;;;6257824;22;20018;-72
2022/01/01 06:27:55;;;;;;;17.55;11.75;;;9.40;99.90;;;;;;6259651;22;20023;-72
2022/01/01 06:30:21;;;;;;;17.02;11.93;;;9.40;99.90;;;;;;6264443;22;20023;-72
2022/01/01 06:32:49;;;;;;;17.70;11.63;;;9.40;99.90;;;;;;6261207;22;20419;-72
2022/01/01 06:35:15;;;;;;;15.25;11.65;;;9.60;99.90;;;;;;6240127;22;20328;-72
2022/01/01 06:37:41;;;;;;;16.50;11.88;;;9.50;99.90;;;;;;6238250;22;20016;-71
2022/01/01 06:40:08;;;;;;;17.63;12.38;;;9.50;99.90;;;;;;6236888;22;20019;-71
2022/01/01 06:42:34;;;;;;;17.00;10.82;;;9.60;99.90;;;;;;6262578;22;20380;-72
2022/01/01 06:45:01;;;;;;;13.57;10.02;;;9.60;99.90;;;;;;6239947;22;20012;-72
2022/01/01 06:47:27;;;;;;;13.77;9.88;;;9.50;99.90;;;;;;6239297;22;20091;-73
2022/01/01 06:49:52;;;;;;;15.10;10.38;;;9.40;99.90;;;;;;6240118;22;20016;-72
2022/01/01 06:52:18;;;;;;;16.95;10.60;;;9.20;99.90;;;;;;6242881;22;20019;-73
2022/01/01 06:54:45;;;;;;;15.13;11.02;;;9.20;99.90;;;;;;6261634;22;20020;-71
2022/01/01 06:57:11;;;;;;;15.27;9.95;;;9.20;99.90;;;;;;6265463;22;20023;-71
2022/01/01 06:59:37;;;;;;;16.35;10.23;;;9.30;99.90;;;;;;6259786;22;20431;-73
2022/01/01 07:02:03;;;;;;;14.90;9.48;;;9.30;99.90;;;;;;6226962;22;20011;-72
2022/01/01 07:04:29;;;;;;;12.05;8.93;;;9.30;99.90;;;;;;6242317;22;20019;-71
2022/01/01 07:06:56;;;;;;;13.55;9.32;;;9.20;99.90;;;;;;6243283;22;20027;-73
2022/01/01 07:09:24;;;;;;;14.63;9.98;;;9.20;99.90;;;;;;6226612;22;20111;-70
2022/01/01 07:11:50;;;;;;;13.88;10.65;;;9.20;99.90;;;;;;6239084;22;20313;-72
2022/01/01 07:14:21;;;;;;;14.50;10.70;;;9.20;99.90;;;;;;6261818;22;20605;-73
2022/01/01 07:16:47;;;;;;;16.88;10.60;;;9.20;99.90;;;;;;6238868;22;20083;-72
2022/01/01 07:19:13;;;;;;;14.50;9.63;;;9.10;99.90;;;;;;6238542;22;20020;-72
2022/01/01 07:21:39;;;;;;;12.93;9.02;;;9.20;99.90;;;;;;6238666;22;20034;-72
2022/01/01 07:24:05;;;;;;;13.13;8.75;;;9.20;99.90;;;;;;6238199;22;20016;-71
2022/01/01 07:26:31;;;;;;;12.55;8.77;;;9.30;99.90;;;;;;6237299;22;20661;-73
2022/01/01 07:28:57;;;;;;;12.45;8.98;;;9.10;99.90;;;;;;6239328;22;20058;-71
2022/01/01 07:31:24;;;;;;;16.48;9.30;;;9.10;99.90;;;;;;6242460;22;20007;-71
2022/01/01 07:33:50;;;;;;;12.93;8.73;;;9.00;99.90;;;;;;6259952;22;20115;-72
2022/01/01 07:36:16;;;;;;;14.02;9.18;;;9.00;99.90;;;;;;6266897;22;20047;-72
2022/01/01 07:38:41;;;;;;;13.90;9.07;;;9.00;99.90;;;;;;6247659;22;20039;-73
2022/01/01 07:41:09;;;;;;;13.23;9.23;;;9.00;99.90;;;;;;6251952;22;20371;-72
2022/01/01 07:43:35;;;;;;;19.23;10.15;;;9.00;99.90;;;;;;6257555;22;20016;-72
2022/01/01 07:46:01;;;;;;;15.98;11.13;;;9.10;99.90;;;;;;6256542;22;20016;-72
2022/01/01 07:48:28;;;;;;;17.90;12.93;;;9.20;99.90;;;;;;6241932;22;20012;-72
2022/01/01 07:50:54;;;;;;;20.20;12.18;;;9.20;99.90;;;;;;6255946;22;20485;-71
2022/01/01 07:53:20;;;;;;;18.00;13.15;;;9.30;99.90;;;;;;6255428;22;20506;-72
2022/01/01 07:55:47;;;;;;;17.80;13.43;;;9.30;99.90;;;;;;6258704;22;20082;-73
2022/01/01 07:58:13;;;;;;;18.38;13.05;;;9.40;99.90;;;;;;6268559;22;20050;-72
2022/01/01 08:00:42;;;;;;;17.80;12.60;;;9.40;99.90;;;;;;6247810;22;20146;-72
2022/01/01 08:03:11;;;;;;;17.58;13.00;;;9.40;99.90;;;;;;6237192;22;20031;-72
2022/01/01 08:05:37;;;;;;;18.70;13.23;;;9.50;99.90;;;;;;6239756;22;20495;-72
2022/01/01 08:08:04;;;;;;;18.52;12.85;;;9.60;99.90;;;;;;6235939;22;20019;-71
2022/01/01 08:10:31;;;;;;;18.67;13.00;;;9.60;99.90;;;;;;6226480;22;20479;-72
2022/01/01 08:12:57;;;;;;;19.50;13.30;;;9.70;99.90;;;;;;6245695;22;20012;-71
2022/01/01 08:15:24;;;;;;;18.80;13.35;;;9.80;99.90;;;;;;6238474;22;20122;-72
2022/01/01 08:17:50;;;;;;;17.05;12.95;;;9.90;99.90;;;;;;6239101;22;20062;-71
2022/01/01 08:20:15;;;;;;;16.15;12.63;;;10.10;99.90;;;;;;6225439;22;20012;-72
2022/01/01 08:22:42;;;;;;;15.88;11.63;;;11.00;99.90;;;;;;6247735;22;20083;-71
2022/01/01 08:25:08;;;;;;;19.20;11.55;;;10.80;99.90;;;;;;6237036;22;20015;-71
2022/01/01 08:27:35;;;;;;;17.20;14.07;;;10.90;99.90;;;;;;6244463;22;20011;-73
2022/01/01 08:30:02;;;;;;;16.70;12.90;;;12.70;99.90;;;;;;6255217;22;20483;-72
2022/01/01 08:32:28;;;;;;;13.52;10.75;;;14.50;99.90;;;;;;6249274;22;20020;-73
2022/01/01 08:34:54;;;;;;;13.52;9.60;;;15.70;99.90;;;;;;6236243;22;20008;-72
2022/01/01 08:37:20;;;;;;;13.60;9.35;;;16.30;99.90;;;;;;6236113;22;20047;-72
2022/01/01 08:39:47;;;;;;;12.57;8.90;;;16.70;99.90;;;;;;6238845;23;20016;-72
2022/01/01 08:42:13;;;;;;;14.05;9.38;;;17.60;99.90;;;;;;6236138;22;20028;-71
2022/01/01 08:44:39;;;;;;;12.93;9.13;;;18.30;99.90;;;;;;6236501;22;20324;-72
2022/01/01 08:47:05;;;;;;;9.70;8.20;;;18.50;99.90;;;;;;6237425;22;20103;-73
2022/01/01 08:49:32;;;;;;;12.60;8.30;;;18.70;99.90;;;;;;6236359;22;20428;-73
2022/01/01 08:51:59;;;;;;;10.75;7.95;;;18.90;99.50;;;;;;6236688;22;20012;-72
2022/01/01 08:54:25;;;;;;;11.20;7.95;;;18.70;99.20;;;;;;6238537;22;20031;-73
2022/01/01 08:56:52;;;;;;;10.50;7.93;;;17.60;99.20;;;;;;6285464;22;20015;-73
2022/01/01 08:59:18;;;;;;;11.77;7.78;;;17.20;99.70;;;;;;6254923;22;20340;-72
2022/01/01 09:01:45;;;;;;;10.35;7.40;;;16.50;99.90;;;;;;6254630;22;20052;-72
2022/01/01 09:04:11;;;;;;;11.15;7.13;;;15.90;99.90;;;;;;6250868;22;20213;-74
2022/01/01 09:06:37;;;;;;;9.20;7.03;;;15.40;99.90;;;;;;6247585;22;20004;-73
2022/01/01 09:09:03;;;;;;;11.48;7.55;;;15.10;99.90;;;;;;6240012;22;20020;-74
2022/01/01 09:11:30;;;;;;;13.45;7.20;;;14.80;99.90;;;;;;6213866;22;20022;-72
2022/01/01 09:13:57;;;;;;;9.80;7.47;;;14.50;99.90;;;;;;6237082;22;20020;-72
2022/01/01 09:16:29;;;;;;;11.07;7.15;;;14.50;99.90;;;;;;6236425;22;20092;-73
2022/01/01 09:18:56;;;;;;;9.82;7.63;;;14.40;99.90;;;;;;6237092;22;20035;-72
2022/01/01 09:21:22;;;;;;;10.45;7.22;;;14.30;99.90;;;;;;6250019;22;20462;-72
2022/01/01 09:23:49;;;;;;;10.65;7.30;;;14.30;99.90;;;;;;6238117;22;20012;-72
2022/01/01 09:26:16;;;;;;;12.38;7.65;;;14.30;99.90;;;;;;6236129;22;20015;-73
2022/01/01 09:28:41;;;;;;;10.65;7.28;;;14.50;99.90;;;;;;6257529;22;20018;-72
2022/01/01 09:31:07;;;;;;;10.43;7.20;;;14.50;99.90;;;;;;6240238;22;20095;-73
2022/01/01 09:33:34;;;;;;;12.77;7.40;;;15.00;99.90;;;;;;6237548;22;20464;-72
2022/01/01 09:36:02;;;;;;;11.70;6.63;;;15.20;99.90;;;;;;6249623;22;20012;-72
2022/01/01 09:38:28;;;;;;;9.07;6.35;;;15.40;99.90;;;;;;6238000;22;20387;-74
2022/01/01 09:40:56;;;;;;;9.82;6.28;;;15.50;99.90;;;;;;6251522;22;20078;-71
2022/01/01 09:43:24;;;;;;;8.68;6.03;;;15.70;99.70;;;;;;6253400;22;20019;-71
2022/01/01 09:45:52;;;;;;;8.50;6.25;;;15.80;99.50;;;;;;6260296;22;20016;-71
2022/01/01 09:48:21;;;;;;;9.00;6.03;;;15.80;99.20;;;;;;6265608;22;20019;-73
2022/01/01 09:50:54;;;;;;;9.27;6.25;;;15.90;99.40;;;;;;6213829;23;20520;-73
2022/01/01 09:53:24;;;;;;;10.18;6.30;;;16.00;98.40;;;;;;6256052;22;20023;-71
2022/01/01 09:55:51;;;;;;;9.80;6.22;;;16.00;99.00;;;;;;6272712;22;20023;-74
2022/01/01 09:58:25;;;;;;;10.68;6.00;;;16.30;98.70;;;;;;6240849;22;20103;-72
2022/01/01 10:00:52;;;;;;;9.93;6.97;;;16.70;98.50;;;;;;6239302;22;20016;-73
2022/01/01 10:03:40;;;;;;;9.70;6.15;;;16.70;97.90;;;;;;6240562;22;20079;-74
2022/01/01 10:06:06;;;;;;;7.45;5.65;;;16.40;97.70;;;;;;6251644;22;20062;-74
2022/01/01 10:08:35;;;;;;;9.85;5.70;;;16.30;97.20;;;;;;6233918;22;20745;-76
2022/01/01 10:11:02;;;;;;;8.48;5.78;;;16.10;97.30;;;;;;6239125;22;20042;-75
2022/01/01 10:13:39;;;;;;;8.20;5.25;;;16.40;97.50;;;;;;6238201;22;20035;-74
2022/01/01 10:16:07;;;;;;;9.13;5.22;;;16.90;97.00;;;;;;6240547;22;20020;-73
2022/01/01 10:18:36;;;;;;;9.45;5.80;;;16.20;96.50;;;;;;6265039;22;20020;-74
2022/01/01 10:21:11;;;;;;;8.85;5.40;;;16.40;96.50;;;;;;6253731;22;20336;-77
2022/01/01 10:23:41;;;;;;;6.93;4.78;;;16.60;96.90;;;;;;6252362;22;20522;-73
2022/01/01 10:29:29;;;;;;;9.18;4.85;;;16.40;96.80;;;;;;6255073;22;20506;-74
2022/01/01 10:32:04;;;;;;;6.28;5.07;;;16.70;96.80;;;;;;6260837;22;20083;-73
2022/01/01 10:34:44;;;;;;;8.50;5.05;;;16.60;96.60;;;;;;6250904;22;20646;-72
2022/01/01 10:37:14;;;;;;;7.10;4.97;;;17.20;96.00;;;;;;6251735;22;20075;-72
2022/01/01 10:39:57;;;;;;;6.28;4.13;;;17.00;95.60;;;;;;6222376;22;20400;-72
2022/01/01 10:42:23;;;;;;;7.22;4.35;;;17.10;95.40;;;;;;6238931;22;20015;-73
2022/01/01 10:44:52;;;;;;;6.25;4.38;;;17.60;95.60;;;;;;6239925;22;20101;-72
2022/01/01 10:47:25;;;;;;;6.60;4.10;;;17.50;94.70;;;;;;6236034;22;20008;-72
2022/01/01 10:50:14;;;;;;;5.45;4.30;;;17.50;94.60;;;;;;6238075;22;20043;-73
2022/01/01 10:52:43;;;;;;;7.18;4.10;;;17.70;94.60;;;;;;6251878;22;20026;-72
2022/01/01 10:55:10;;;;;;;7.05;4.38;;;17.30;94.60;;;;;;6265339;22;20019;-73
2022/01/01 10:57:39;;;;;;;6.47;4.53;;;18.30;94.30;;;;;;6258585;22;20026;-72
2022/01/01 11:00:23;;;;;;;6.43;4.50;;;18.80;94.00;;;;;;6270071;22;20020;-73
2022/01/01 11:02:50;;;;;;;7.82;4.50;;;19.10;92.70;;;;;;6222946;22;20039;-72
2022/01/01 11:05:25;;;;;;;6.38;4.63;;;19.50;92.70;;;;;;6269707;22;20043;-72
2022/01/01 11:07:52;;;;;;;7.40;5.00;;;19.10;92.40;;;;;;6245717;22;20023;-72
2022/01/01 11:10:20;;;;;;;6.90;4.70;;;19.00;92.80;;;;;;6230467;22;20031;-73
2022/01/01 11:12:48;;;;;;;8.88;5.03;;;19.60;92.50;;;;;;6247290;22;20099;-72
2022/01/01 11:15:15;;;;;;;7.38;4.97;;;19.60;92.30;;;;;;6253248;22;20341;-73
2022/01/01 11:17:42;;;;;;;10.88;5.90;;;20.10;92.30;;;;;;6271418;22;20030;-72
2022/01/01 11:20:10;;;;;;;9.35;6.45;;;19.80;92.90;;;;;;6269774;22;20102;-72
2022/01/01 11:22:36;;;;;;;8.02;6.50;;;20.00;93.10;;;;;;6248411;22;20490;-72
2022/01/01 11:25:03;;;;;;;9.45;6.25;;;19.50;93.50;;;;;;6252257;22;20023;-72
2022/01/01 11:27:31;;;;;;;8.35;5.82;;;20.10;93.10;;;;;;6270121;22;20493;-73
2022/01/01 11:29:59;;;;;;;7.10;5.32;;;20.70;92.60;;;;;;6244142;22;20029;-72
2022/01/01 11:32:42;;;;;;;9.65;5.68;;;20.90;91.80;;;;;;6236878;22;20063;-73
2022/01/01 11:35:16;;;;;;;7.90;5.57;;;20.50;91.60;;;;;;6237858;22;20020;-72
2022/01/01 11:38:09;;;;;;;7.43;5.57;;;20.40;92.20;;;;;;6245935;22;20019;-72
2022/01/01 11:40:45;;;;;;;10.50;6.80;;;21.20;91.90;;;;;;6232405;22;20182;-72
2022/01/01 11:43:34;;;;;;;8.45;5.85;;;21.30;91.90;;;;;;6251672;22;20015;-73
2022/01/01 11:46:05;;;;;;;9.25;6.18;;;21.40;91.00;;;;;;6242621;22;20038;-73
2022/01/01 11:48:39;;;;;;;9.83;7.00;;;21.70;91.30;;;;;;6238298;22;20023;-75
2022/01/01 11:51:28;;;;;;;11.95;7.72;;;22.10;91.70;;;;;;6236756;22;20020;-72
2022/01/01 11:54:06;;;;;;;14.32;7.65;;;22.30;91.40;;;;;;6239155;23;20013;-73
2022/01/01 11:56:51;;;;;;;11.18;8.10;;;22.00;91.70;;;;;;6263413;22;20020;-73
2022/01/01 11:59:20;;;;;;;13.40;8.80;;;22.30;92.20;;;;;;6237975;22;20554;-73
2022/01/01 12:01:48;;;;;;;11.68;8.95;;;22.80;92.10;;;;;;6248789;22;20007;-73
2022/01/01 12:04:31;;;;;;;13.95;9.40;;;22.90;92.30;;;;;;6257437;22;20020;-72
2022/01/01 12:07:00;;;;;;;12.10;9.63;;;23.00;92.90;;;;;;6270107;22;20016;-73
2022/01/01 12:09:27;;;;;;;12.73;9.80;;;23.20;92.50;;;;;;6236948;22;20027;-72
2022/01/01 12:11:57;;;;;;;15.85;10.32;;;23.50;92.50;;;;;;6264562;22;20070;-72
2022/01/01 12:14:28;;;;;;;13.35;10.00;;;24.20;92.10;;;;;;6256168;22;20026;-72
2022/01/01 12:16:55;;;;;;;13.70;9.77;;;23.60;93.40;;;;;;6259333;22;20061;-72
2022/01/01 12:19:24;;;;;;;12.88;9.48;;;23.40;94.00;;;;;;6268222;22;20045;-73
2022/01/01 12:22:09;;;;;;;12.30;9.90;;;23.70;94.00;;;;;;6270387;22;20043;-72
2022/01/01 12:24:40;;;;;;;13.13;8.75;;;24.50;93.80;;;;;;6268189;22;20015;-73
2022/01/01 12:27:14;;;;;;;15.45;11.00;;;24.70;93.60;;;;;;6255676;22;20034;-72
2022/01/01 12:29:41;;;;;;;13.00;9.77;;;24.80;93.60;;;;;;6255184;22;20026;-73
2022/01/01 12:32:08;;;;;;;13.35;9.93;;;25.20;93.40;;;;;;6256592;22;20749;-73
2022/01/01 12:34:38;;;;;;;12.90;9.88;;;25.40;93.00;;;;;;6255638;22;20043;-72
2022/01/01 12:37:08;;;;;;;14.88;10.13;;;25.10;93.40;;;;;;6267885;22;20137;-73
2022/01/01 12:40:12;;;;;;;16.67;10.40;;;24.70;93.40;;;;;;6258373;22;20015;-73
2022/01/01 12:42:46;;;;;;;13.20;10.10;;;24.70;93.60;;;;;;6245309;22;20716;-73
2022/01/01 12:45:14;;;;;;;14.10;11.32;;;24.40;94.00;;;;;;6236221;22;20032;-73